createdAt,value
2019-04-06T08:15:29.386Z,63.30
2019-04-06T08:18:00.611Z,99.90
2019-04-06T08:20:39.509Z,99.90
2019-04-06T08:23:10.368Z,99.90
2019-04-06T08:25:41.399Z,99.90
2019-04-06T08:28:15.032Z,99.90
2019-04-06T08:30:47.062Z,99.90
2019-04-06T08:33:17.978Z,99.90
2019-04-06T08:35:49.213Z,99.90
2019-04-06T08:38:20.597Z,99.90
2019-04-06T08:40:51.681Z,99.90
2019-04-06T08:43:22.744Z,99.90
2019-04-06T08:45:54.989Z,99.90
2019-04-06T08:48:28.877Z,99.90
2019-04-06T08:50:59.619Z,99.90
2019-04-06T08:53:30.693Z,99.90
2019-04-06T08:56:01.384Z,99.90
2019-04-06T08:58:32.073Z,99.90
2019-04-06T09:01:02.939Z,99.90
2019-04-06T09:03:33.669Z,99.90
2019-04-06T09:06:04.340Z,99.90
2019-04-06T09:08:40.127Z,99.90
2019-04-06T09:11:13.740Z,99.90
2019-04-06T09:13:45.266Z,99.90
2019-04-06T09:16:16.270Z,99.90
2019-04-06T09:18:49.343Z,99.90
2019-04-06T09:21:22.641Z,99.90
2019-04-06T09:23:58.237Z,99.90
2019-04-06T09:26:30.002Z,99.90
2019-04-06T09:29:00.803Z,99.90
2019-04-06T09:31:31.541Z,99.90
2019-04-06T09:34:03.420Z,99.90
2019-04-06T09:36:34.401Z,99.90
2019-04-06T09:39:06.555Z,99.90
2019-04-06T09:41:49.547Z,99.90
2019-04-06T09:44:31.370Z,99.90
2019-04-06T09:47:11.391Z,99.90
2019-04-06T09:49:55.443Z,99.90
2019-04-06T09:52:32.923Z,99.90
2019-04-06T09:55:20.616Z,99.90
2019-04-06T09:58:16.740Z,99.90
2019-04-06T10:01:12.590Z,99.90
2019-04-06T10:03:56.377Z,99.90
2019-04-06T10:06:39.291Z,99.90
2019-04-06T10:09:29.407Z,99.90
2019-04-06T10:12:29.487Z,99.10
2019-04-06T10:15:24.377Z,98.80
2019-04-06T10:18:17.934Z,98.90
2019-04-06T10:21:08.455Z,98.50
2019-04-06T10:23:57.619Z,93.00
2019-04-06T10:26:55.359Z,92.30
2019-04-06T10:29:49.195Z,92.90
2019-04-06T10:32:33.750Z,89.40
2019-04-06T10:35:31.192Z,81.80
2019-04-06T10:38:20.834Z,76.00
2019-04-06T10:41:11.287Z,76.10
2019-04-06T10:44:07.517Z,74.60
2019-04-06T10:47:06.508Z,74.80
2019-04-06T10:49:57.637Z,71.20
2019-04-06T10:52:42.681Z,71.10
2019-04-06T10:55:31.663Z,69.40
2019-04-06T10:58:19.846Z,67.50
2019-04-06T11:01:12.100Z,66.00
2019-04-06T11:04:15.540Z,69.30
2019-04-06T11:07:11.204Z,66.30
2019-04-06T11:09:56.770Z,66.40
2019-04-06T11:12:51.203Z,68.30
2019-04-06T11:15:39.676Z,66.20
2019-04-06T11:18:35.233Z,65.90
2019-04-06T11:21:23.978Z,62.10
2019-04-06T11:24:32.864Z,61.20
2019-04-06T11:27:26.937Z,61.20
2019-04-06T11:30:16.677Z,61.80
2019-04-06T11:33:05.221Z,63.00
2019-04-06T11:35:46.047Z,61.10
2019-04-06T11:38:51.018Z,58.70
2019-04-06T11:41:47.827Z,59.20
2019-04-06T11:44:43.715Z,58.80
2019-04-06T11:47:23.198Z,58.60
2019-04-06T11:50:03.861Z,59.40
2019-04-06T11:52:56.535Z,57.80
2019-04-06T11:55:55.231Z,57.50
2019-04-06T11:58:44.848Z,58.30
2019-04-06T12:01:43.776Z,59.20
2019-04-06T12:04:40.029Z,58.40
2019-04-06T12:07:20.760Z,59.60
2019-04-06T12:10:00.388Z,58.50
2019-04-06T12:13:05.136Z,55.30
2019-04-06T12:15:55.457Z,58.50
2019-04-06T12:18:54.367Z,61.80
2019-04-06T12:21:58.514Z,58.90
2019-04-06T12:24:58.832Z,57.50
2019-04-06T12:27:43.094Z,56.80
2019-04-06T12:30:51.571Z,56.00
2019-04-06T12:33:47.793Z,55.50
2019-04-06T12:36:29.239Z,56.10
2019-04-06T12:39:18.562Z,56.60
2019-04-06T12:42:20.118Z,55.70
2019-04-06T12:45:19.518Z,56.20
2019-04-06T12:48:12.055Z,55.20
2019-04-06T12:51:04.103Z,54.00
2019-04-06T12:53:53.720Z,54.20
2019-04-06T12:56:42.146Z,54.90
2019-04-06T12:59:23.599Z,53.30
2019-04-06T13:02:20.201Z,53.40
2019-04-06T13:05:24.915Z,51.80
2019-04-06T13:08:27.051Z,51.40
2019-04-06T13:11:20.005Z,51.40
2019-04-06T13:14:08.521Z,48.70
2019-04-06T13:16:56.634Z,47.00
2019-04-06T13:19:48.986Z,45.90
2019-04-06T13:22:39.593Z,46.10
2019-04-06T13:25:35.974Z,46.70
2019-04-06T13:28:24.828Z,45.30
2019-04-06T13:31:26.964Z,45.00
2019-04-06T13:34:26.299Z,45.40
2019-04-06T13:37:06.844Z,45.00
2019-04-06T13:40:01.516Z,43.40
2019-04-06T13:43:00.939Z,43.20
2019-04-06T13:45:59.533Z,43.10
2019-04-06T13:48:39.298Z,43.10
2019-04-06T13:51:27.797Z,42.40
2019-04-06T13:54:17.749Z,41.90
2019-04-06T13:57:16.772Z,41.60
2019-04-06T14:00:09.391Z,40.50
2019-04-06T14:03:03.624Z,41.70
2019-04-06T14:05:53.174Z,42.10
2019-04-06T14:08:43.290Z,42.10
2019-04-06T14:11:51.314Z,41.10
2019-04-06T14:14:41.263Z,42.10
2019-04-06T14:17:29.830Z,41.60
2019-04-06T14:20:21.386Z,42.30
2019-04-06T14:23:17.944Z,39.50
2019-04-06T14:26:20.059Z,39.40
2019-04-06T14:29:05.200Z,38.60
2019-04-06T14:31:47.742Z,38.90
2019-04-06T14:34:44.054Z,39.70
2019-04-06T14:37:28.408Z,39.70
2019-04-06T14:40:16.755Z,39.60
2019-04-06T14:43:05.513Z,39.30
2019-04-06T14:46:07.681Z,39.80
2019-04-06T14:49:17.242Z,40.00
2019-04-06T14:51:58.939Z,40.00
2019-04-06T14:54:48.479Z,41.00
2019-04-06T14:57:25.098Z,41.90
2019-04-06T15:00:14.626Z,41.00
2019-04-06T15:03:22.423Z,40.80
2019-04-06T15:06:10.505Z,40.20
2019-04-06T15:09:06.450Z,40.50
2019-04-06T15:12:03.964Z,39.70
2019-04-06T15:14:53.334Z,40.10
2019-04-06T15:17:30.182Z,39.80
2019-04-06T15:20:06.802Z,40.20
2019-04-06T15:22:59.279Z,40.50
2019-04-06T15:25:36.909Z,40.80
2019-04-06T15:28:33.192Z,40.30
2019-04-06T15:31:29.063Z,40.80
2019-04-06T15:34:14.255Z,41.00
2019-04-06T15:36:52.274Z,41.00
2019-04-06T15:39:40.675Z,41.10
2019-04-06T15:42:21.729Z,41.80
2019-04-06T15:45:11.416Z,41.70
2019-04-06T15:48:16.272Z,42.30
2019-04-06T15:50:58.695Z,42.30
2019-04-06T15:53:57.510Z,43.90
2019-04-06T15:56:41.350Z,44.60
2019-04-06T15:59:37.156Z,45.30
2019-04-06T16:02:26.945Z,45.30
2019-04-06T16:05:25.797Z,45.50
2019-04-06T16:08:11.176Z,45.20
2019-04-06T16:10:56.527Z,46.30
2019-04-06T16:13:55.676Z,46.80
2019-04-06T16:16:45.281Z,46.50
2019-04-06T16:19:43.918Z,46.50
2019-04-06T16:22:33.784Z,46.80
2019-04-06T16:25:32.660Z,47.50
2019-04-06T16:28:22.371Z,47.20
2019-04-06T16:31:03.080Z,46.80
2019-04-06T16:33:51.722Z,47.30
2019-04-06T16:36:44.414Z,47.30
2019-04-06T16:39:31.015Z,47.50
2019-04-06T16:42:20.679Z,47.60
2019-04-06T16:45:13.831Z,47.90
2019-04-06T16:48:06.487Z,47.70
2019-04-06T16:50:56.713Z,47.80
2019-04-06T16:53:55.617Z,48.60
2019-04-06T16:56:45.499Z,48.60
2019-04-06T16:59:23.959Z,48.90
2019-04-06T17:02:09.015Z,49.30
2019-04-06T17:04:54.687Z,49.20
2019-04-06T17:08:10.221Z,49.70
2019-04-06T17:10:42.592Z,49.90
2019-04-06T17:13:24.716Z,49.70
2019-04-06T17:16:09.664Z,50.20
2019-04-06T17:18:51.187Z,50.20
2019-04-06T17:21:41.181Z,50.70
2019-04-06T17:24:18.120Z,50.70
2019-04-06T17:27:06.449Z,51.20
2019-04-06T17:29:52.686Z,51.60
2019-04-06T17:32:46.020Z,52.30
2019-04-06T17:35:36.460Z,52.80
2019-04-06T17:38:23.130Z,53.90
2019-04-06T17:41:15.612Z,54.70
2019-04-06T17:44:02.303Z,55.20
2019-04-06T17:47:10.346Z,55.80
2019-04-06T17:50:11.058Z,56.30
2019-04-06T17:53:10.655Z,56.80
2019-04-06T17:56:00.475Z,57.00
2019-04-06T17:58:44.081Z,57.50
2019-04-06T18:01:41.118Z,58.10
2019-04-06T18:04:23.874Z,58.30
2019-04-06T18:07:22.423Z,58.80
2019-04-06T18:10:03.387Z,59.10
2019-04-06T18:12:42.249Z,59.90
2019-04-06T18:15:13.232Z,60.30
2019-04-06T18:17:43.920Z,60.60
2019-04-06T18:20:15.521Z,61.20
2019-04-06T18:22:46.746Z,61.30
2019-04-06T18:25:17.686Z,61.90
2019-04-06T18:27:48.432Z,62.70
2019-04-06T18:30:20.377Z,63.30
2019-04-06T18:33:10.443Z,63.80
2019-04-06T18:35:41.561Z,64.40
2019-04-06T18:38:31.113Z,64.80
2019-04-06T18:41:02.528Z,65.90
2019-04-06T18:43:33.313Z,66.60
2019-04-06T18:46:03.966Z,67.30
2019-04-06T18:48:34.787Z,68.40
2019-04-06T18:51:05.907Z,69.70
2019-04-06T18:53:37.074Z,71.20
2019-04-06T18:56:07.877Z,72.70
2019-04-06T18:58:39.931Z,73.70
2019-04-06T19:01:13.374Z,74.80
2019-04-06T19:03:45.156Z,76.60
2019-04-06T19:06:16.273Z,77.30
2019-04-06T19:08:47.494Z,79.40
2019-04-06T19:11:18.760Z,80.70
2019-04-06T19:13:50.212Z,82.50
2019-04-06T19:16:21.997Z,84.00
2019-04-06T19:18:52.666Z,85.30
2019-04-06T19:21:23.340Z,87.00
2019-04-06T19:23:56.208Z,87.80
2019-04-06T19:26:27.074Z,89.50
2019-04-06T19:28:58.148Z,90.40
2019-04-06T19:31:28.893Z,91.00
2019-04-06T19:34:00.442Z,91.60
2019-04-06T19:36:31.367Z,92.20
2019-04-06T19:39:02.105Z,93.10
2019-04-06T19:41:32.792Z,93.70
2019-04-06T19:44:03.650Z,94.10
2019-04-06T19:46:34.338Z,94.80
2019-04-06T19:49:13.224Z,95.10
2019-04-06T19:51:44.487Z,95.70
2019-04-06T19:54:15.075Z,96.30
2019-04-06T19:56:54.311Z,96.90
2019-04-06T19:59:25.147Z,97.70
2019-04-06T20:01:56.750Z,98.40
2019-04-06T20:04:28.457Z,98.90
2019-04-06T20:06:59.109Z,99.80
2019-04-06T20:09:29.752Z,99.90
2019-04-06T20:12:05.673Z,99.90
2019-04-06T20:14:33.665Z,99.90
2019-04-06T20:17:04.361Z,99.90
2019-04-06T20:19:35.118Z,99.90
2019-04-06T20:22:05.931Z,99.90
2019-04-06T20:24:36.610Z,99.90
2019-04-06T20:27:08.222Z,99.90
2019-04-06T20:29:51.887Z,99.90
2019-04-06T20:32:35.590Z,99.90
2019-04-06T20:35:09.262Z,99.90
2019-04-06T20:37:40.169Z,99.90
2019-04-06T20:40:11.870Z,99.90
2019-04-06T20:42:43.767Z,99.90
2019-04-06T20:45:14.665Z,99.90
2019-04-06T20:47:45.949Z,99.90
2019-04-06T20:50:22.582Z,99.90
2019-04-06T20:52:53.411Z,99.90
2019-04-06T20:55:24.323Z,99.90
2019-04-06T20:57:55.410Z,99.90
2019-04-06T21:00:26.783Z,99.90
2019-04-06T21:02:58.219Z,99.90
2019-04-06T21:05:29.203Z,99.90
2019-04-06T21:08:00.790Z,99.90
2019-04-06T21:10:32.595Z,99.90
2019-04-06T21:13:03.574Z,99.90
2019-04-06T21:15:35.041Z,99.90
2019-04-06T21:18:06.619Z,99.90
2019-04-06T21:20:38.040Z,99.90
2019-04-06T21:23:08.853Z,99.90
2019-04-06T21:25:40.194Z,99.90
2019-04-06T21:28:10.981Z,99.90
2019-04-06T21:30:42.419Z,99.90
2019-04-06T21:33:18.606Z,99.90
2019-04-06T21:35:49.339Z,99.90
2019-04-06T21:38:20.997Z,99.90
2019-04-06T21:40:54.383Z,99.90
2019-04-06T21:43:25.151Z,99.90
2019-04-06T21:45:55.816Z,99.90
2019-04-06T21:48:27.024Z,99.90
2019-04-06T21:50:58.229Z,99.90
2019-04-06T21:53:29.285Z,99.90
2019-04-06T21:56:03.361Z,99.90
2019-04-06T21:58:33.519Z,99.90
2019-04-06T22:01:04.881Z,99.90
2019-04-06T22:03:36.442Z,99.90
2019-04-06T22:06:07.900Z,99.90
2019-04-06T22:08:39.518Z,99.90
2019-04-06T22:11:11.971Z,99.90
2019-04-06T22:13:43.136Z,99.90
2019-04-06T22:16:14.135Z,99.90
2019-04-06T22:18:45.311Z,99.90
2019-04-06T22:21:16.352Z,99.90
2019-04-06T22:23:47.956Z,99.90
2019-04-06T22:26:19.428Z,99.90
2019-04-06T22:28:50.858Z,99.90
2019-04-06T22:31:22.407Z,99.90
2019-04-06T22:33:53.485Z,99.90
2019-04-06T22:36:25.526Z,99.90
2019-04-06T22:38:57.216Z,99.90
2019-04-06T22:41:28.994Z,99.90
2019-04-06T22:44:00.706Z,99.90
2019-04-06T22:46:32.464Z,99.90
2019-04-06T22:49:03.817Z,99.90
2019-04-06T22:51:35.921Z,99.90
2019-04-06T22:54:06.854Z,99.90
2019-04-06T22:56:38.719Z,99.90
2019-04-06T22:59:09.680Z,99.90
2019-04-06T23:01:42.510Z,99.90
2019-04-06T23:04:28.722Z,99.90
2019-04-06T23:07:08.489Z,99.90
2019-04-06T23:09:39.778Z,99.90
2019-04-06T23:12:11.879Z,99.90
2019-04-06T23:14:43.090Z,99.90
2019-04-06T23:17:14.650Z,99.90
2019-04-06T23:19:45.400Z,99.90
2019-04-06T23:22:16.089Z,99.90
2019-04-06T23:24:46.893Z,99.90
2019-04-06T23:27:17.792Z,99.90
2019-04-06T23:29:48.635Z,99.90
2019-04-06T23:32:20.365Z,99.90
2019-04-06T23:34:58.886Z,99.90
2019-04-06T23:37:24.222Z,99.90
2019-04-06T23:39:55.258Z,99.90
2019-04-06T23:42:26.150Z,99.90
2019-04-06T23:44:56.900Z,99.90
2019-04-06T23:47:27.567Z,99.90
2019-04-06T23:49:58.383Z,99.90
2019-04-06T23:52:29.694Z,99.90
2019-04-06T23:55:01.149Z,99.90
2019-04-06T23:57:32.030Z,99.90
